Time;durP1;ratioP1;P1;durP2;ratioP2;P2;SDS_P1;SDS_P2;PMS_P1;PMS_P2;Temp;Humidity;BMP_temperature;BMP_pressure;BME280_temperature;BME280_humidity;BME280_pressure;Samples;Min_cycle;Max_cycle;Signal;HPM_P1;HPM_P2
2022/01/18 00:01:17;;;;;;;26.88;4.47;;;;;;;6.17;100.00;103725.97;5073373;28;20041;-56
2022/01/18 00:03:47;;;;;;;38.70;5.03;;;;;;;6.23;100.00;103725.09;5076042;28;20479;-56
2022/01/18 00:06:15;;;;;;;30.08;5.00;;;;;;;6.20;100.00;103732.97;5075793;28;20041;-55
2022/01/18 00:08:44;;;;;;;31.33;4.95;;;;;;;6.20;100.00;103723.41;5075702;28;20048;-55
2022/01/18 00:11:12;;;;;;;21.42;3.70;;;;;;;6.22;100.00;103726.00;5075831;28;20053;-56
2022/01/18 00:13:43;;;;;;;28.23;4.93;;;;;;;6.22;100.00;103721.63;5076044;28;20048;-54
2022/01/18 00:16:27;;;;;;;29.52;3.65;;;;;;;6.24;100.00;103725.13;5075385;28;20109;-56
2022/01/18 00:19:02;;;;;;;23.10;4.43;;;;;;;6.23;100.00;103723.38;5074559;28;20047;-55
2022/01/18 00:21:37;;;;;;;22.50;4.40;;;;;;;6.23;100.00;103728.59;5075253;28;20503;-56
2022/01/18 00:24:07;;;;;;;18.38;4.13;;;;;;;6.27;100.00;103724.22;5075249;28;20387;-56
2022/01/18 00:26:35;;;;;;;21.63;4.45;;;;;;;6.29;100.00;103725.13;5075377;28;20491;-56
2022/01/18 00:29:09;;;;;;;23.67;4.63;;;;;;;6.31;100.00;103725.09;5075426;28;20040;-56
2022/01/18 00:31:46;;;;;;;24.98;3.80;;;;;;;6.27;100.00;103734.69;5074126;28;20040;-56
2022/01/18 00:34:21;;;;;;;22.00;4.70;;;;;;;6.30;100.00;103731.19;5075331;28;20044;-56
2022/01/18 00:36:58;;;;;;;21.70;3.78;;;;;;;6.33;100.00;103739.06;5073127;28;20175;-56
2022/01/18 00:39:26;;;;;;;20.85;3.60;;;;;;;6.32;100.00;103737.31;5075238;28;20048;-56
2022/01/18 00:41:55;;;;;;;19.83;4.18;;;;;;;6.29;100.00;103738.19;5075073;28;20056;-55
2022/01/18 00:44:24;;;;;;;21.45;3.92;;;;;;;6.24;100.00;103742.53;5075143;28;20048;-51
2022/01/18 00:46:52;;;;;;;20.27;3.42;;;;;;;6.29;100.00;103734.72;5075172;28;20048;-53
2022/01/18 00:49:22;;;;;;;23.08;3.63;;;;;;;6.29;100.00;103726.88;5069615;28;20090;-52
2022/01/18 00:51:54;;;;;;;20.25;3.70;;;;;;;6.30;100.00;103749.50;5071226;28;20049;-56
2022/01/18 00:54:28;;;;;;;25.80;3.95;;;;;;;6.31;100.00;103744.25;5074048;28;20352;-56
2022/01/18 00:56:57;;;;;;;31.33;5.03;;;;;;;6.30;100.00;103739.94;5074934;28;20059;-55
2022/01/18 00:59:26;;;;;;;26.98;4.30;;;;;;;6.28;100.00;103740.81;5073900;28;20049;-56
2022/01/18 01:01:54;;;;;;;24.08;4.63;;;;;;;6.23;100.00;103744.28;5072900;28;20052;-56
2022/01/18 01:04:27;;;;;;;26.63;3.92;;;;;;;6.25;100.00;103742.53;5070776;28;20492;-56
2022/01/18 01:06:55;;;;;;;;;;;;;;;6.25;100.00;103752.97;5073835;28;20045;-52
2022/01/18 01:09:23;;;;;;;35.80;5.43;;;;;;;6.26;100.00;103751.25;5071555;28;19961;-53
2022/01/18 01:11:51;;;;;;;25.42;4.50;;;;;;;6.26;100.00;103746.03;5072173;28;20045;-55
2022/01/18 01:14:23;;;;;;;20.80;3.63;;;;;;;6.28;100.00;103744.28;5069884;28;20244;-54
2022/01/18 01:16:59;;;;;;;26.73;4.45;;;;;;;6.26;100.00;103744.28;5069863;28;20063;-53
2022/01/18 01:34:00;;;;;;;31.10;5.60;;;;;;;6.18;100.00;103738.19;5054199;28;20041;-56
2022/01/18 01:36:49;;;;;;;28.40;5.10;;;;;;;6.13;100.00;103739.91;5053931;28;20072;-56
2022/01/18 01:42:07;;;;;;;32.47;5.70;;;;;;;6.14;100.00;103736.44;5061375;28;20375;-52
2022/01/18 01:44:43;;;;;;;;;;;;;;;6.18;100.00;103732.09;5074666;28;20052;-48
2022/01/18 01:47:17;;;;;;;30.45;5.53;;;;;;;6.17;100.00;103732.97;5074208;28;19927;-53
2022/01/18 01:49:48;;;;;;;30.73;5.65;;;;;;;6.16;100.00;103742.56;5073913;28;20032;-56
2022/01/18 01:52:20;;;;;;;34.83;7.25;;;;;;;6.14;100.00;103741.69;5068601;28;20044;-56
2022/01/18 01:54:48;;;;;;;26.55;5.63;;;;;;;6.11;100.00;103741.69;5070706;28;20503;-56
2022/01/18 01:57:17;;;;;;;27.92;6.78;;;;;;;6.13;100.00;103747.75;5073805;28;20064;-56
2022/01/18 01:59:45;;;;;;;40.20;7.75;;;;;;;6.12;100.00;103747.78;5073713;28;20048;-49
2022/01/18 02:02:15;;;;;;;25.27;6.15;;;;;;;6.11;100.00;103736.47;5073920;28;20036;-49
2022/01/18 02:04:43;;;;;;;29.27;7.35;;;;;;;6.07;100.00;103742.56;5073558;28;20376;-50
2022/01/18 02:07:13;;;;;;;33.58;7.35;;;;;;;6.06;100.00;103738.19;5073390;28;20040;-51
2022/01/18 02:09:42;;;;;;;28.13;7.43;;;;;;;6.08;100.00;103737.31;5072283;28;20040;-52
2022/01/18 02:12:11;;;;;;;28.33;7.18;;;;;;;6.08;100.00;103744.28;5067778;28;20115;-51
2022/01/18 02:14:41;;;;;;;32.65;7.72;;;;;;;6.07;100.00;103742.56;5071838;28;20045;-52
2022/01/18 02:22:41;;;;;;;32.75;7.78;;;;;;;6.02;100.00;103732.09;5073467;28;20045;-50
2022/01/18 02:25:09;;;;;;;28.23;7.38;;;;;;;6.06;100.00;103730.34;5072890;28;20079;-56
2022/01/18 02:27:37;;;;;;;28.30;8.32;;;;;;;6.06;100.00;103726.00;5070062;28;20040;-56
2022/01/18 02:30:07;;;;;;;32.17;7.97;;;;;;;6.01;100.00;103726.88;5062686;28;20040;-56
2022/01/18 02:32:35;;;;;;;35.85;7.43;;;;;;;6.05;100.00;103728.59;5073148;28;20040;-55
2022/01/18 02:35:04;;;;;;;25.40;6.80;;;;;;;6.07;100.00;103729.50;5073157;28;20597;-54
2022/01/18 02:37:32;;;;;;;30.52;6.97;;;;;;;6.08;100.00;103732.09;5073000;28;20040;-55
2022/01/18 02:40:01;;;;;;;29.65;7.55;;;;;;;6.09;100.00;103730.34;5069753;28;20546;-56
2022/01/18 02:42:40;;;;;;;27.88;6.65;;;;;;;6.10;100.00;103737.31;5070243;28;20430;-56
2022/01/18 02:45:09;;;;;;;21.45;7.30;;;;;;;6.09;100.00;103736.47;5072947;28;20066;-56
2022/01/18 02:47:37;;;;;;;25.17;7.45;;;;;;;6.09;100.00;103731.22;5071657;28;20059;-55
2022/01/18 02:50:06;;;;;;;27.02;7.72;;;;;;;6.10;100.00;103737.31;5070951;28;20127;-52
2022/01/18 02:52:34;;;;;;;24.98;7.03;;;;;;;6.11;100.00;103744.28;5072629;28;20055;-51
2022/01/18 02:55:04;;;;;;;24.80;7.00;;;;;;;6.02;100.00;103745.16;5069845;28;20471;-56
2022/01/18 02:57:41;;;;;;;32.83;9.10;;;;;;;6.05;100.00;103741.66;5068683;28;20415;-51
2022/01/18 03:00:19;;;;;;;32.72;6.97;;;;;;;6.03;100.00;103741.66;5067633;28;20049;-52
2022/01/18 03:05:33;;;;;;;29.75;7.50;;;;;;;6.02;100.00;103736.44;5072652;28;20439;-51
2022/01/18 03:08:02;;;;;;;24.70;6.78;;;;;;;6.05;100.00;103746.91;5071202;28;20032;-56
2022/01/18 03:10:31;;;;;;;26.77;7.05;;;;;;;5.99;100.00;103742.53;5068054;28;20050;-56
2022/01/18 03:12:59;;;;;;;35.28;7.50;;;;;;;6.00;100.00;103736.47;5070421;28;20051;-56
2022/01/18 03:15:28;;;;;;;27.40;7.72;;;;;;;5.99;100.00;103739.06;5072160;28;20051;-53
2022/01/18 03:17:57;;;;;;;31.00;7.22;;;;;;;5.99;100.00;103733.84;5072082;28;20063;-52
2022/01/18 03:20:25;;;;;;;27.42;7.82;;;;;;;5.99;100.00;103742.53;5072500;28;20044;-56
2022/01/18 03:22:54;;;;;;;31.60;8.25;;;;;;;6.01;100.00;103747.75;5070219;28;20059;-56
2022/01/18 03:25:39;;;;;;;33.53;7.53;;;;;;;6.03;100.00;103746.91;5068088;28;20053;-56
2022/01/18 03:28:08;;;;;;;29.33;7.70;;;;;;;6.02;100.00;103754.75;5071369;28;20043;-56
2022/01/18 03:30:38;;;;;;;28.58;8.95;;;;;;;6.05;100.00;103755.63;5072303;28;20599;-56
2022/01/18 03:33:08;;;;;;;25.02;7.53;;;;;;;6.01;100.00;103751.28;5072152;28;20371;-56
2022/01/18 03:35:37;;;;;;;28.65;9.43;;;;;;;6.01;100.00;103759.09;5071229;28;20139;-56
2022/01/18 03:38:06;;;;;;;29.83;8.52;;;;;;;5.93;100.00;103752.94;5071989;28;20040;-56
2022/01/18 03:40:35;;;;;;;33.10;9.38;;;;;;;5.97;100.00;103757.34;5071819;28;20098;-56
2022/01/18 03:43:05;;;;;;;34.80;9.25;;;;;;;5.92;100.00;103759.06;5071969;28;20044;-56
2022/01/18 03:45:41;;;;;;;31.77;9.63;;;;;;;5.92;100.00;103765.16;5071644;28;20052;-56
2022/01/18 03:48:15;;;;;;;30.58;10.00;;;;;;;5.99;100.00;103770.44;5071518;28;20040;-56
2022/01/18 03:50:43;;;;;;;33.45;9.52;;;;;;;5.97;100.00;103767.78;5071804;28;20077;-56
2022/01/18 03:53:12;;;;;;;33.85;9.63;;;;;;;5.96;100.00;103768.66;5071352;28;20045;-56
2022/01/18 03:55:40;;;;;;;28.48;9.60;;;;;;;5.90;100.00;103772.13;5070071;28;20386;-56
2022/01/18 03:58:08;;;;;;;30.85;10.00;;;;;;;5.95;100.00;103774.72;5071523;28;20402;-54
2022/01/18 04:00:39;;;;;;;42.55;11.25;;;;;;;5.92;100.00;103774.72;5071702;28;20054;-56
2022/01/18 04:03:07;;;;;;;40.05;9.57;;;;;;;5.91;100.00;103772.97;5071939;28;20066;-56
2022/01/18 04:05:36;;;;;;;35.90;9.90;;;;;;;5.92;100.00;103770.38;5071877;28;20040;-55
2022/01/18 04:08:05;;;;;;;43.30;9.38;;;;;;;5.92;100.00;103767.75;5071647;28;20048;-57
2022/01/18 04:10:33;;;;;;;41.40;11.13;;;;;;;5.93;100.00;103766.00;5071803;28;20115;-56
2022/01/18 04:13:04;;;;;;;38.42;9.60;;;;;;;5.96;100.00;103771.25;5071942;28;20382;-55
2022/01/18 04:15:34;;;;;;;33.10;9.30;;;;;;;5.96;100.00;103772.97;5071483;28;20054;-55
2022/01/18 04:18:14;;;;;;;39.47;10.75;;;;;;;5.97;100.00;103782.56;5071756;28;20094;-55
2022/01/18 04:29:00;;;;;;;30.85;9.02;;;;;;;5.95;100.00;103779.97;5071230;28;20059;-54
2022/01/18 04:31:30;;;;;;;36.20;10.00;;;;;;;5.98;100.00;103782.59;5071061;28;20068;-49
2022/01/18 04:33:59;;;;;;;33.22;8.50;;;;;;;5.96;100.00;103780.81;5071314;28;20372;-55
2022/01/18 04:36:28;;;;;;;30.65;8.82;;;;;;;5.95;100.00;103781.72;5071968;28;20371;-55
2022/01/18 04:38:57;;;;;;;31.77;8.93;;;;;;;5.95;100.00;103789.53;5071665;28;20055;-53
2022/01/18 04:41:28;;;;;;;31.60;7.57;;;;;;;5.94;100.00;103780.81;5071166;28;20045;-55
2022/01/18 04:49:29;;;;;;;22.38;5.80;;;;;;;5.86;100.00;103773.00;5071349;28;20143;-53
2022/01/18 04:51:57;;;;;;;25.73;5.70;;;;;;;5.87;100.00;103777.31;5072083;28;20055;-52
2022/01/18 04:54:29;;;;;;;29.90;7.00;;;;;;;5.83;100.00;103775.56;5074845;28;20044;-53
2022/01/18 04:59:43;;;;;;;25.90;5.22;;;;;;;5.79;100.00;103781.66;5074781;28;20106;-52
2022/01/18 05:02:11;;;;;;;31.55;5.60;;;;;;;5.81;100.00;103782.56;5074833;28;20123;-51
2022/01/18 05:04:43;;;;;;;30.90;6.35;;;;;;;5.81;100.00;103793.00;5075019;28;20123;-51
2022/01/18 05:07:13;;;;;;;31.90;6.30;;;;;;;5.75;100.00;103792.97;5074856;28;20430;-53
2022/01/18 05:09:42;;;;;;;33.15;7.38;;;;;;;5.70;100.00;103795.59;5074677;28;20055;-53
2022/01/18 05:12:17;;;;;;;33.70;6.47;;;;;;;5.76;100.00;103790.34;5071696;28;20422;-51
2022/01/18 05:14:47;;;;;;;37.03;6.82;;;;;;;5.81;100.00;103782.56;5070066;28;20049;-49
2022/01/18 05:17:34;;;;;;;21.67;6.05;;;;;;;5.82;100.00;103784.31;5072002;28;20102;-50
2022/01/18 05:20:35;;;;;;;32.95;6.95;;;;;;;5.77;100.00;103791.25;5070866;28;20049;-50
2022/01/18 05:23:02;;;;;;;28.85;6.75;;;;;;;5.79;100.00;103788.63;5074154;28;20040;-52
2022/01/18 05:25:31;;;;;;;30.80;7.00;;;;;;;5.79;100.00;103789.50;5073083;28;20120;-50
2022/01/18 05:28:00;;;;;;;29.95;6.97;;;;;;;5.78;100.00;103790.41;5070633;28;20123;-51
2022/01/18 05:30:29;;;;;;;41.25;7.43;;;;;;;5.79;100.00;103788.63;5072141;28;20054;-52
2022/01/18 05:32:57;;;;;;;28.83;6.50;;;;;;;5.80;100.00;103788.63;5074372;28;20068;-53
2022/01/18 05:35:28;;;;;;;30.98;6.22;;;;;;;5.79;100.00;103783.41;5073786;28;20522;-52
2022/01/18 05:37:56;;;;;;;27.10;6.95;;;;;;;5.72;100.00;103772.09;5073727;28;20056;-53
2022/01/18 05:40:25;;;;;;;36.60;6.57;;;;;;;5.73;100.00;103769.47;5074049;28;20113;-53
2022/01/18 05:42:54;;;;;;;29.63;7.18;;;;;;;5.72;100.00;103762.50;5072090;28;20071;-53
2022/01/18 05:45:22;;;;;;;26.23;6.65;;;;;;;5.70;100.00;103772.09;5068443;28;20128;-52
2022/01/18 05:47:51;;;;;;;26.10;6.88;;;;;;;5.68;100.00;103762.50;5072785;28;20051;-52
2022/01/18 05:50:19;;;;;;;25.13;6.40;;;;;;;5.72;100.00;103766.84;5072812;28;20098;-50
2022/01/18 05:52:48;;;;;;;33.45;6.40;;;;;;;5.70;100.00;103761.63;5072852;28;20055;-52
2022/01/18 05:55:17;;;;;;;24.55;6.45;;;;;;;5.65;100.00;103765.13;5069682;28;20052;-53
2022/01/18 05:57:45;;;;;;;24.58;5.55;;;;;;;5.72;100.00;103777.31;5071918;28;20036;-53
2022/01/18 06:00:21;;;;;;;21.60;5.95;;;;;;;5.71;100.00;103780.78;5072956;28;20511;-53
2022/01/18 06:03:00;;;;;;;21.25;5.40;;;;;;;5.69;100.00;103785.13;5073994;28;20511;-54
2022/01/18 06:08:18;;;;;;;23.50;6.80;;;;;;;5.64;100.00;103786.84;5070700;28;20044;-52
2022/01/18 06:10:46;;;;;;;28.63;5.90;;;;;;;5.54;100.00;103794.66;5069900;28;20102;-54
2022/01/18 06:13:14;;;;;;;26.95;7.35;;;;;;;5.60;100.00;103788.59;5072241;28;20045;-54
2022/01/18 06:15:43;;;;;;;28.10;7.00;;;;;;;5.54;100.00;103799.88;5072955;28;20070;-49
2022/01/18 06:18:13;;;;;;;26.42;6.78;;;;;;;5.57;100.00;103802.50;5073114;28;20036;-54
2022/01/18 06:20:43;;;;;;;26.92;7.00;;;;;;;5.61;100.00;103790.34;5073189;28;20052;-51
2022/01/18 06:23:13;;;;;;;18.58;5.75;;;;;;;5.58;100.00;103792.94;5073348;28;20131;-54
2022/01/18 06:25:43;;;;;;;27.20;7.13;;;;;;;5.56;100.00;103799.88;5069475;28;20040;-56
2022/01/18 06:28:12;;;;;;;29.95;5.78;;;;;;;5.57;100.00;103788.59;5070495;28;20049;-55
2022/01/18 06:30:40;;;;;;;22.05;5.57;;;;;;;5.57;100.00;103799.88;5072065;28;20112;-53
2022/01/18 06:33:08;;;;;;;22.88;5.00;;;;;;;5.53;100.00;103803.34;5073076;28;20055;-55
2022/01/18 06:35:36;;;;;;;18.13;4.55;;;;;;;5.50;100.00;103808.56;5073035;28;20106;-55
2022/01/18 06:38:04;;;;;;;23.77;5.57;;;;;;;5.48;100.00;103810.31;5071401;28;20344;-54
2022/01/18 06:40:33;;;;;;;20.88;5.20;;;;;;;5.53;100.00;103805.97;5071957;28;20044;-51
2022/01/18 06:43:03;;;;;;;18.65;5.32;;;;;;;5.54;100.00;103806.84;5072054;28;20040;-51
2022/01/18 06:45:33;;;;;;;16.40;4.63;;;;;;;5.52;100.00;103812.06;5068755;28;20109;-49
2022/01/18 06:48:01;;;;;;;21.60;5.00;;;;;;;5.54;100.00;103809.47;5069089;28;20529;-50
2022/01/18 06:50:29;;;;;;;21.90;5.10;;;;;;;5.55;100.00;103812.06;5072144;28;20070;-51
2022/01/18 06:52:57;;;;;;;14.48;5.53;;;;;;;5.55;100.00;103806.84;5070778;28;20078;-54
2022/01/18 06:55:26;;;;;;;13.75;4.63;;;;;;;5.54;100.00;103806.84;5068486;28;20040;-56
2022/01/18 06:57:56;;;;;;;19.55;4.70;;;;;;;5.48;100.00;103810.31;5071026;28;20499;-51
2022/01/18 07:00:25;;;;;;;19.45;4.28;;;;;;;5.45;100.00;103805.06;5072788;28;20090;-50
2022/01/18 07:02:53;;;;;;;18.67;4.97;;;;;;;5.50;100.00;103816.41;5070966;28;20059;-57
2022/01/18 07:05:21;;;;;;;12.27;4.15;;;;;;;5.42;100.00;103821.59;5067515;28;20080;-55
2022/01/18 07:07:50;;;;;;;19.45;4.25;;;;;;;5.42;100.00;103821.59;5068408;28;20057;-56
2022/01/18 07:10:18;;;;;;;22.60;4.57;;;;;;;5.42;100.00;103820.72;5071805;28;20040;-55
2022/01/18 07:12:46;;;;;;;16.35;4.25;;;;;;;5.40;100.00;103825.09;5070841;28;20098;-56
2022/01/18 07:15:14;;;;;;;20.50;5.25;;;;;;;5.35;100.00;103822.44;5072142;28;20066;-56
2022/01/18 07:17:43;;;;;;;19.10;5.25;;;;;;;5.38;100.00;103824.19;5072047;28;20052;-55
2022/01/18 07:20:12;;;;;;;20.20;5.40;;;;;;;5.37;100.00;103832.88;5072559;28;20071;-56
2022/01/18 07:22:42;;;;;;;17.95;5.10;;;;;;;5.37;100.00;103835.50;5072279;28;20110;-55
2022/01/18 07:25:13;;;;;;;16.65;5.60;;;;;;;5.34;100.00;103830.25;5071315;28;20036;-56
2022/01/18 07:27:41;;;;;;;16.33;6.00;;;;;;;5.31;100.00;103830.25;5072123;28;20383;-56
2022/01/18 07:30:10;;;;;;;23.83;6.93;;;;;;;5.33;100.00;103828.50;5071980;28;20071;-55
2022/01/18 07:32:38;;;;;;;23.88;6.78;;;;;;;5.41;100.00;103829.41;5071807;28;20048;-55
2022/01/18 07:35:11;;;;;;;24.83;7.45;;;;;;;5.32;100.00;103827.66;5070759;28;20083;-56
2022/01/18 07:37:39;;;;;;;21.50;7.50;;;;;;;5.29;100.00;103830.25;5071364;28;20491;-55
2022/01/18 07:40:09;;;;;;;32.08;8.85;;;;;;;5.30;100.00;103831.13;5072085;28;20426;-56
2022/01/18 07:42:37;;;;;;;21.65;7.85;;;;;;;5.27;100.00;103833.72;5071818;28;20061;-53
2022/01/18 07:45:06;;;;;;;27.27;8.05;;;;;;;5.23;100.00;103835.44;5071054;28;20049;-51
2022/01/18 07:47:34;;;;;;;20.83;7.43;;;;;;;5.11;100.00;103841.44;5071217;28;20048;-53
2022/01/18 07:50:03;;;;;;;25.50;8.15;;;;;;;5.13;100.00;103839.72;5071620;28;20044;-53
2022/01/18 07:52:35;;;;;;;24.50;8.02;;;;;;;5.15;100.00;103847.56;5071745;28;20344;-52
2022/01/18 07:55:05;;;;;;;24.17;8.55;;;;;;;5.19;100.00;103849.31;5068680;28;20363;-55
2022/01/18 07:57:33;;;;;;;27.33;7.63;;;;;;;5.15;100.00;103853.63;5068109;28;20084;-53
2022/01/18 08:00:01;;;;;;;21.75;7.78;;;;;;;5.16;100.00;103851.94;5067925;28;21142;-53
2022/01/18 08:02:36;;;;;;;23.40;8.75;;;;;;;5.20;100.00;103854.53;5071405;28;20526;-53
2022/01/18 08:05:05;;;;;;;21.33;7.68;;;;;;;5.11;100.00;103859.72;5071885;28;20152;-49
2022/01/18 08:07:35;;;;;;;26.83;8.57;;;;;;;5.11;100.00;103859.72;5069401;28;20048;-51
2022/01/18 08:10:06;;;;;;;20.52;7.40;;;;;;;5.13;100.00;103860.59;5070091;28;20503;-52
2022/01/18 08:12:34;;;;;;;20.30;7.53;;;;;;;5.12;100.00;103863.22;5071464;28;20063;-52
2022/01/18 08:15:13;;;;;;;22.42;7.25;;;;;;;5.10;100.00;103855.38;5071536;28;20037;-54
2022/01/18 08:17:53;;;;;;;20.98;7.25;;;;;;;5.12;100.00;103856.25;5070637;28;20056;-52
2022/01/18 08:20:21;;;;;;;20.83;7.38;;;;;;;5.15;100.00;103851.03;5067566;28;20075;-54
2022/01/18 08:22:51;;;;;;;22.23;7.20;;;;;;;5.12;100.00;103843.19;5070676;28;20052;-54
2022/01/18 08:25:19;;;;;;;21.05;7.28;;;;;;;4.98;100.00;103847.47;5075509;28;20410;-53
2022/01/18 08:27:47;;;;;;;20.63;8.07;;;;;;;5.05;100.00;103846.66;5075483;28;20672;-52
2022/01/18 08:30:17;;;;;;;18.33;7.43;;;;;;;5.08;100.00;103851.88;5075222;28;20537;-52
2022/01/18 08:32:46;;;;;;;20.80;7.82;;;;;;;5.11;100.00;103849.28;5064665;28;20086;-53
2022/01/18 08:35:14;;;;;;;22.17;5.88;;;;;;;5.10;100.00;103850.16;5070088;28;20052;-53
2022/01/18 08:37:43;;;;;;;23.45;6.78;;;;;;;5.02;100.00;103857.06;5073426;28;20059;-51
2022/01/18 08:40:12;;;;;;;21.25;7.40;;;;;;;4.85;100.00;103849.13;5075277;28;20084;-51
2022/01/18 08:42:41;;;;;;;17.25;7.35;;;;;;;4.86;100.00;103859.56;5074094;28;20036;-54
2022/01/18 08:45:09;;;;;;;18.92;6.82;;;;;;;4.93;100.00;103857.00;5075018;28;20063;-53
2022/01/18 08:47:37;;;;;;;17.20;7.25;;;;;;;4.99;100.00;103854.41;5072985;28;20100;-51
2022/01/18 08:50:07;;;;;;;20.05;6.68;;;;;;;5.03;100.00;103856.19;5070254;28;20055;-51
2022/01/18 08:52:35;;;;;;;23.48;6.47;;;;;;;5.00;100.00;103858.78;5072789;28;20037;-53
2022/01/18 08:55:04;;;;;;;23.17;7.88;;;;;;;4.87;100.00;103855.22;5074190;28;20497;-52
2022/01/18 08:57:33;;;;;;;22.42;6.85;;;;;;;4.89;100.00;103859.59;5073537;28;20086;-52
2022/01/18 09:00:01;;;;;;;20.10;7.45;;;;;;;4.96;100.00;103862.22;5075323;28;20554;-52
2022/01/18 09:02:29;;;;;;;17.90;7.20;;;;;;;5.03;100.00;103856.19;5074283;28;20135;-54
2022/01/18 09:04:57;;;;;;;18.25;6.53;;;;;;;5.03;100.00;103858.78;5072060;28;20556;-51
2022/01/18 09:07:26;;;;;;;17.23;6.38;;;;;;;5.06;100.00;103859.69;5070598;28;20036;-53
2022/01/18 09:10:03;;;;;;;23.55;7.18;;;;;;;5.06;100.00;103853.63;5071082;28;20045;-52
2022/01/18 09:12:31;;;;;;;14.98;6.00;;;;;;;5.01;100.00;103850.09;5072806;28;20051;-53
2022/01/18 09:15:01;;;;;;;16.23;5.63;;;;;;;5.04;100.00;103855.31;5073777;28;20502;-53
2022/01/18 09:17:29;;;;;;;16.80;6.70;;;;;;;5.06;100.00;103859.69;5074361;28;20110;-53
2022/01/18 09:19:58;;;;;;;15.77;6.20;;;;;;;5.07;100.00;103856.22;5074778;28;20044;-53
2022/01/18 09:22:26;;;;;;;14.90;5.75;;;;;;;5.04;100.00;103853.56;5071948;28;20048;-53
2022/01/18 09:24:54;;;;;;;18.10;6.50;;;;;;;5.01;100.00;103861.38;5071528;28;20095;-53
2022/01/18 09:27:22;;;;;;;15.23;5.22;;;;;;;5.12;100.00;103868.44;5074029;28;20601;-52
2022/01/18 09:29:50;;;;;;;14.70;6.07;;;;;;;5.06;100.00;103869.28;5073968;28;20541;-52
2022/01/18 09:32:21;;;;;;;16.70;5.97;;;;;;;5.08;100.00;103872.75;5071721;28;20083;-52
2022/01/18 09:34:49;;;;;;;20.38;7.28;;;;;;;5.04;100.00;103876.19;5069661;28;20522;-50
2022/01/18 09:37:17;;;;;;;15.80;6.47;;;;;;;5.02;100.00;103884.00;5073374;28;20094;-53
2022/01/18 09:39:46;;;;;;;14.95;6.10;;;;;;;5.02;100.00;103891.84;5073805;28;20106;-53
2022/01/18 09:42:15;;;;;;;22.13;6.50;;;;;;;5.05;100.00;103888.38;5074279;28;20110;-53
2022/01/18 09:44:43;;;;;;;21.55;6.57;;;;;;;4.96;100.00;103893.53;5074093;28;20045;-54
2022/01/18 09:47:11;;;;;;;23.35;6.57;;;;;;;4.97;100.00;103884.84;5072178;28;20518;-51
2022/01/18 09:49:41;;;;;;;21.60;6.97;;;;;;;4.97;100.00;103884.84;5073796;28;20057;-53
2022/01/18 09:52:09;;;;;;;19.27;6.20;;;;;;;4.99;100.00;103888.31;5073975;28;20076;-50
2022/01/18 09:54:37;;;;;;;20.30;6.88;;;;;;;4.82;100.00;103883.88;5072371;28;20053;-49
2022/01/18 09:57:06;;;;;;;18.85;5.80;;;;;;;4.90;100.00;103882.19;5068274;28;20042;-49
2022/01/18 09:59:34;;;;;;;22.92;6.18;;;;;;;4.89;100.00;103890.91;5072415;28;20052;-50
2022/01/18 10:02:03;;;;;;;17.48;4.93;;;;;;;4.88;100.00;103890.84;5073900;28;20378;-53
2022/01/18 10:04:39;;;;;;;16.65;5.82;;;;;;;4.99;100.00;103894.44;5073058;28;20048;-52
2022/01/18 10:07:09;;;;;;;19.65;6.63;;;;;;;5.03;100.00;103895.31;5072658;28;20048;-52
2022/01/18 10:09:40;;;;;;;16.55;5.90;;;;;;;4.85;100.00;103891.72;5053390;28;20492;-53
2022/01/18 10:12:11;;;;;;;16.92;5.28;;;;;;;4.78;100.00;103891.66;5053409;28;20119;-53
2022/01/18 10:14:43;;;;;;;14.02;4.43;;;;;;;4.89;100.00;103890.91;5066759;28;20051;-52
2022/01/18 10:17:12;;;;;;;16.90;5.22;;;;;;;4.96;100.00;103898.75;5068261;28;20052;-53
2022/01/18 10:19:48;;;;;;;15.82;4.75;;;;;;;4.95;100.00;103900.50;5069795;28;20048;-53
2022/01/18 10:22:24;;;;;;;13.60;5.53;;;;;;;4.94;100.00;103895.28;5073231;28;20041;-53
2022/01/18 10:24:53;;;;;;;22.25;5.28;;;;;;;4.78;100.00;103891.66;5071334;28;20079;-52
2022/01/18 10:27:21;;;;;;;17.13;5.88;;;;;;;4.78;100.00;103892.53;5071557;28;20041;-51
2022/01/18 10:29:52;;;;;;;14.27;5.53;;;;;;;4.77;100.00;103893.38;5062963;28;20068;-52
2022/01/18 10:32:25;;;;;;;15.10;5.20;;;;;;;4.77;100.00;103895.13;5071884;28;20368;-51
2022/01/18 10:35:05;;;;;;;13.93;4.60;;;;;;;4.83;100.00;103888.22;5053051;28;20098;-54
2022/01/18 10:37:36;;;;;;;11.13;4.50;;;;;;;4.91;100.00;103901.34;5052844;28;20539;-54
2022/01/18 10:40:07;;;;;;;19.52;5.15;;;;;;;4.74;100.00;103898.56;5071255;28;20045;-53
2022/01/18 10:42:42;;;;;;;17.02;5.47;;;;;;;4.83;100.00;103888.22;5073122;28;20045;-53
2022/01/18 10:45:14;;;;;;;16.55;5.50;;;;;;;4.93;100.00;103899.59;5072567;28;20068;-54
2022/01/18 10:47:50;;;;;;;20.10;6.10;;;;;;;4.98;100.00;103895.28;5072973;28;20564;-50
2022/01/18 10:50:20;;;;;;;16.55;5.65;;;;;;;4.89;100.00;103893.50;5072786;28;20052;-53
2022/01/18 10:52:52;;;;;;;16.13;5.70;;;;;;;4.91;100.00;103891.75;5072338;28;20441;-52
2022/01/18 10:55:23;;;;;;;13.63;5.10;;;;;;;4.88;100.00;103883.03;5072529;28;20491;-51
2022/01/18 10:57:52;;;;;;;13.38;4.72;;;;;;;4.90;100.00;103886.53;5072863;28;20063;-50
2022/01/18 11:00:22;;;;;;;15.73;5.50;;;;;;;4.85;100.00;103880.41;5067390;28;20809;-53
2022/01/18 11:02:52;;;;;;;18.15;7.18;;;;;;;4.76;100.00;103881.22;5069286;28;20045;-53
2022/01/18 11:05:24;;;;;;;17.17;6.65;;;;;;;4.87;100.00;103868.28;5072555;28;20502;-52
2022/01/18 11:07:56;;;;;;;15.75;6.35;;;;;;;4.74;100.00;103877.72;5072514;28;20475;-53
2022/01/18 11:10:31;;;;;;;17.97;5.97;;;;;;;4.93;100.00;103877.88;5072272;28;20044;-50
2022/01/18 11:13:22;;;;;;;13.90;5.73;;;;;;;4.98;100.00;103876.16;5072305;28;20904;-52
2022/01/18 11:16:01;;;;;;;13.73;5.55;;;;;;;5.00;100.00;103880.50;5071999;28;20460;-52
2022/01/18 11:18:31;;;;;;;15.27;6.78;;;;;;;5.05;100.00;103877.94;5069798;28;20254;-53
2022/01/18 11:21:01;;;;;;;17.65;6.35;;;;;;;5.13;100.00;103871.03;5068604;28;20048;-52
2022/01/18 11:23:35;;;;;;;18.90;6.70;;;;;;;5.10;100.00;103870.13;5071421;28;20109;-52
2022/01/18 11:26:04;;;;;;;15.38;6.38;;;;;;;5.07;100.00;103861.44;5070926;28;20051;-51
2022/01/18 11:28:34;;;;;;;18.20;5.68;;;;;;;5.15;100.00;103874.50;5070584;28;20048;-50
2022/01/18 11:31:02;;;;;;;17.50;6.63;;;;;;;5.15;100.00;103863.22;5066688;28;20068;-50
2022/01/18 11:33:36;;;;;;;16.42;5.97;;;;;;;5.20;100.00;103866.72;5070615;28;20051;-52
2022/01/18 11:36:07;;;;;;;17.05;6.72;;;;;;;5.25;100.00;103862.41;5072077;28;20045;-52
2022/01/18 11:38:41;;;;;;;18.20;7.00;;;;;;;4.99;100.00;103863.13;5071681;28;20049;-52
2022/01/18 11:41:21;;;;;;;16.95;6.13;;;;;;;5.03;100.00;103861.41;5071374;28;20513;-52
2022/01/18 11:43:51;;;;;;;26.60;8.48;;;;;;;5.14;100.00;103862.34;5071636;28;20143;-53
2022/01/18 11:46:22;;;;;;;19.95;6.53;;;;;;;5.28;100.00;103853.75;5071989;28;20127;-52
2022/01/18 11:49:03;;;;;;;19.30;7.65;;;;;;;5.26;100.00;103861.53;5071912;28;20105;-51
2022/01/18 11:51:39;;;;;;;22.27;6.70;;;;;;;5.26;100.00;103851.09;5071881;28;20052;-50
2022/01/18 11:54:38;;;;;;;18.73;6.57;;;;;;;5.25;100.00;103857.19;5072048;28;20051;-51
2022/01/18 11:57:34;;;;;;;15.73;6.93;;;;;;;5.38;100.00;103858.13;5070126;28;20055;-53
2022/01/18 12:00:26;;;;;;;18.50;6.70;;;;;;;5.51;100.00;103851.22;5066323;28;20158;-52
2022/01/18 12:02:56;;;;;;;23.30;6.97;;;;;;;5.50;100.00;103855.56;5071298;28;20040;-53
2022/01/18 12:05:25;;;;;;;24.42;6.93;;;;;;;5.45;100.00;103859.88;5071993;28;20053;-52
2022/01/18 12:08:01;;;;;;;16.60;6.80;;;;;;;5.41;100.00;103860.75;5070143;28;20044;-52
2022/01/18 12:10:49;;;;;;;20.38;7.80;;;;;;;5.40;100.00;103869.47;5067689;28;20060;-52
2022/01/18 12:13:33;;;;;;;22.52;8.20;;;;;;;5.45;100.00;103865.09;5070976;28;20140;-50
2022/01/18 12:16:05;;;;;;;23.25;7.82;;;;;;;5.34;100.00;103864.19;5072161;28;20052;-50
2022/01/18 12:18:34;;;;;;;20.38;7.70;;;;;;;5.51;100.00;103861.69;5071738;28;20098;-52